sensor_id;sensor_type;location;lat;lon;timestamp;temperature;humidity
74224;SHT31;62585;49.706;18.216;2023-10-13T00:00:30;17.62;81.67
74224;SHT31;62585;49.706;18.216;2023-10-13T00:03:20;17.76;81.39
74224;SHT31;62585;49.706;18.216;2023-10-13T00:05:47;17.46;81.23
74224;SHT31;62585;49.706;18.216;2023-10-13T00:08:14;17.42;81.61
74224;SHT31;62585;49.706;18.216;2023-10-13T00:10:40;17.55;81.50
74224;SHT31;62585;49.706;18.216;2023-10-13T00:13:06;17.38;81.72
74224;SHT31;62585;49.706;18.216;2023-10-13T00:15:45;17.42;81.77
74224;SHT31;62585;49.706;18.216;2023-10-13T00:18:32;17.35;81.85
74224;SHT31;62585;49.706;18.216;2023-10-13T00:21:08;17.34;82.04
74224;SHT31;62585;49.706;18.216;2023-10-13T00:23:46;17.56;81.65
74224;SHT31;62585;49.706;18.216;2023-10-13T00:26:25;17.36;81.76
74224;SHT31;62585;49.706;18.216;2023-10-13T00:28:58;17.21;82.38
74224;SHT31;62585;49.706;18.216;2023-10-13T00:31:43;17.07;83.04
74224;SHT31;62585;49.706;18.216;2023-10-13T00:34:10;16.95;82.83
74224;SHT31;62585;49.706;18.216;2023-10-13T00:36:44;16.97;83.23
74224;SHT31;62585;49.706;18.216;2023-10-13T00:39:30;16.83;84.08
74224;SHT31;62585;49.706;18.216;2023-10-13T00:41:55;16.84;83.40
74224;SHT31;62585;49.706;18.216;2023-10-13T00:44:32;16.87;83.32
74224;SHT31;62585;49.706;18.216;2023-10-13T00:47:09;17.10;82.91
74224;SHT31;62585;49.706;18.216;2023-10-13T00:49:44;17.35;82.19
74224;SHT31;62585;49.706;18.216;2023-10-13T00:52:14;17.46;82.08
74224;SHT31;62585;49.706;18.216;2023-10-13T00:54:46;17.42;82.47
74224;SHT31;62585;49.706;18.216;2023-10-13T00:57:14;17.48;82.27
74224;SHT31;62585;49.706;18.216;2023-10-13T00:59:53;17.65;81.84
74224;SHT31;62585;49.706;18.216;2023-10-13T01:02:22;17.67;81.45
74224;SHT31;62585;49.706;18.216;2023-10-13T01:05:02;17.77;81.40
74224;SHT31;62585;49.706;18.216;2023-10-13T01:07:29;17.43;82.02
74224;SHT31;62585;49.706;18.216;2023-10-13T01:09:55;17.40;82.53
74224;SHT31;62585;49.706;18.216;2023-10-13T01:12:21;17.31;83.07
74224;SHT31;62585;49.706;18.216;2023-10-13T01:14:50;17.31;83.13
74224;SHT31;62585;49.706;18.216;2023-10-13T01:17:16;17.28;83.06
74224;SHT31;62585;49.706;18.216;2023-10-13T01:19:43;17.01;83.97
74224;SHT31;62585;49.706;18.216;2023-10-13T01:22:13;17.04;84.02
74224;SHT31;62585;49.706;18.216;2023-10-13T01:24:39;17.10;84.18
74224;SHT31;62585;49.706;18.216;2023-10-13T01:27:07;16.97;84.38
74224;SHT31;62585;49.706;18.216;2023-10-13T01:29:51;17.21;83.64
74224;SHT31;62585;49.706;18.216;2023-10-13T01:32:22;17.08;84.28
74224;SHT31;62585;49.706;18.216;2023-10-13T01:34:49;17.22;83.99
74224;SHT31;62585;49.706;18.216;2023-10-13T01:37:15;17.28;83.56
74224;SHT31;62585;49.706;18.216;2023-10-13T01:39:42;17.38;83.12
74224;SHT31;62585;49.706;18.216;2023-10-13T01:42:08;17.48;83.10
74224;SHT31;62585;49.706;18.216;2023-10-13T01:44:34;17.36;83.12
74224;SHT31;62585;49.706;18.216;2023-10-13T01:47:00;17.17;83.49
74224;SHT31;62585;49.706;18.216;2023-10-13T01:49:33;17.17;83.82
74224;SHT31;62585;49.706;18.216;2023-10-13T01:52:08;17.34;83.21
74224;SHT31;62585;49.706;18.216;2023-10-13T01:54:38;17.43;83.01
74224;SHT31;62585;49.706;18.216;2023-10-13T01:57:10;17.43;83.11
74224;SHT31;62585;49.706;18.216;2023-10-13T01:59:40;17.43;83.14
74224;SHT31;62585;49.706;18.216;2023-10-13T02:02:10;17.39;83.01
74224;SHT31;62585;49.706;18.216;2023-10-13T02:04:41;17.31;82.94
74224;SHT31;62585;49.706;18.216;2023-10-13T02:07:26;17.08;83.59
74224;SHT31;62585;49.706;18.216;2023-10-13T02:10:00;17.29;82.97
74224;SHT31;62585;49.706;18.216;2023-10-13T02:12:29;17.19;83.48
74224;SHT31;62585;49.706;18.216;2023-10-13T02:15:12;17.27;83.17
74224;SHT31;62585;49.706;18.216;2023-10-13T02:17:39;17.45;82.23
74224;SHT31;62585;49.706;18.216;2023-10-13T02:20:08;17.49;81.84
74224;SHT31;62585;49.706;18.216;2023-10-13T02:22:40;17.63;81.69
74224;SHT31;62585;49.706;18.216;2023-10-13T02:25:18;17.49;82.04
74224;SHT31;62585;49.706;18.216;2023-10-13T02:28:04;17.29;82.73
74224;SHT31;62585;49.706;18.216;2023-10-13T02:30:38;17.08;83.75
74224;SHT31;62585;49.706;18.216;2023-10-13T02:33:04;16.88;83.92
74224;SHT31;62585;49.706;18.216;2023-10-13T02:35:32;16.57;84.53
74224;SHT31;62585;49.706;18.216;2023-10-13T02:38:09;16.49;85.15
74224;SHT31;62585;49.706;18.216;2023-10-13T02:40:38;16.52;85.21
74224;SHT31;62585;49.706;18.216;2023-10-13T02:43:04;16.49;85.20
74224;SHT31;62585;49.706;18.216;2023-10-13T02:45:33;16.41;85.53
74224;SHT31;62585;49.706;18.216;2023-10-13T02:48:05;16.41;85.77
74224;SHT31;62585;49.706;18.216;2023-10-13T02:50:43;16.41;85.75
74224;SHT31;62585;49.706;18.216;2023-10-13T02:53:10;16.55;85.59
74224;SHT31;62585;49.706;18.216;2023-10-13T02:55:52;16.46;85.54
74224;SHT31;62585;49.706;18.216;2023-10-13T02:58:18;16.80;84.52
74224;SHT31;62585;49.706;18.216;2023-10-13T03:00:44;16.98;83.83
74224;SHT31;62585;49.706;18.216;2023-10-13T03:03:12;17.27;83.15
74224;SHT31;62585;49.706;18.216;2023-10-13T03:05:40;17.42;82.86
74224;SHT31;62585;49.706;18.216;2023-10-13T03:08:08;17.40;82.68
74224;SHT31;62585;49.706;18.216;2023-10-13T03:10:37;17.45;82.85
74224;SHT31;62585;49.706;18.216;2023-10-13T03:13:10;17.46;82.85
74224;SHT31;62585;49.706;18.216;2023-10-13T03:15:36;17.57;82.53
74224;SHT31;62585;49.706;18.216;2023-10-13T03:18:02;17.53;82.48
74224;SHT31;62585;49.706;18.216;2023-10-13T03:20:28;17.40;82.31
74224;SHT31;62585;49.706;18.216;2023-10-13T03:23:00;17.36;82.35
74224;SHT31;62585;49.706;18.216;2023-10-13T03:25:26;17.32;83.02
74224;SHT31;62585;49.706;18.216;2023-10-13T03:27:56;17.31;83.00
74224;SHT31;62585;49.706;18.216;2023-10-13T03:30:22;17.35;82.72
74224;SHT31;62585;49.706;18.216;2023-10-13T03:32:55;17.19;83.06
74224;SHT31;62585;49.706;18.216;2023-10-13T03:35:22;17.15;83.57
74224;SHT31;62585;49.706;18.216;2023-10-13T03:37:54;16.69;84.47
74224;SHT31;62585;49.706;18.216;2023-10-13T03:40:21;16.64;84.92
74224;SHT31;62585;49.706;18.216;2023-10-13T03:42:54;16.79;84.68
74224;SHT31;62585;49.706;18.216;2023-10-13T03:45:40;16.64;85.07
74224;SHT31;62585;49.706;18.216;2023-10-13T03:48:14;16.39;85.56
74224;SHT31;62585;49.706;18.216;2023-10-13T03:51:00;16.34;85.94
74224;SHT31;62585;49.706;18.216;2023-10-13T03:53:42;16.12;86.49
74224;SHT31;62585;49.706;18.216;2023-10-13T03:56:28;16.41;86.14
74224;SHT31;62585;49.706;18.216;2023-10-13T03:59:07;16.43;85.78
74224;SHT31;62585;49.706;18.216;2023-10-13T04:01:36;16.19;86.50
74224;SHT31;62585;49.706;18.216;2023-10-13T04:04:12;16.22;86.46
74224;SHT31;62585;49.706;18.216;2023-10-13T04:06:38;16.22;86.17
74224;SHT31;62585;49.706;18.216;2023-10-13T04:09:14;16.29;86.00
74224;SHT31;62585;49.706;18.216;2023-10-13T04:12:06;16.22;85.96
74224;SHT31;62585;49.706;18.216;2023-10-13T04:14:42;16.19;86.20
74224;SHT31;62585;49.706;18.216;2023-10-13T04:17:27;16.34;85.71
74224;SHT31;62585;49.706;18.216;2023-10-13T04:19:57;16.41;85.25
74224;SHT31;62585;49.706;18.216;2023-10-13T04:22:32;16.74;84.38
74224;SHT31;62585;49.706;18.216;2023-10-13T04:25:23;16.70;83.91
74224;SHT31;62585;49.706;18.216;2023-10-13T04:28:24;16.52;84.36
74224;SHT31;62585;49.706;18.216;2023-10-13T04:31:16;16.55;84.24
74224;SHT31;62585;49.706;18.216;2023-10-13T04:34:02;16.57;83.82
74224;SHT31;62585;49.706;18.216;2023-10-13T04:36:28;16.55;83.72
74224;SHT31;62585;49.706;18.216;2023-10-13T04:38:58;16.55;83.89
74224;SHT31;62585;49.706;18.216;2023-10-13T04:41:33;16.53;83.48
74224;SHT31;62585;49.706;18.216;2023-10-13T04:44:22;16.45;83.71
74224;SHT31;62585;49.706;18.216;2023-10-13T04:47:06;16.55;83.08
74224;SHT31;62585;49.706;18.216;2023-10-13T04:49:40;16.52;83.25
74224;SHT31;62585;49.706;18.216;2023-10-13T04:52:11;16.59;83.01
74224;SHT31;62585;49.706;18.216;2023-10-13T04:54:42;16.67;82.97
74224;SHT31;62585;49.706;18.216;2023-10-13T04:57:22;16.71;82.70
74224;SHT31;62585;49.706;18.216;2023-10-13T05:00:07;16.84;82.25
74224;SHT31;62585;49.706;18.216;2023-10-13T05:02:36;16.61;82.98
74224;SHT31;62585;49.706;18.216;2023-10-13T05:05:03;16.61;82.82
74224;SHT31;62585;49.706;18.216;2023-10-13T05:07:34;16.55;83.29
74224;SHT31;62585;49.706;18.216;2023-10-13T05:10:19;16.21;84.22
74224;SHT31;62585;49.706;18.216;2023-10-13T05:13:03;16.25;84.01
74224;SHT31;62585;49.706;18.216;2023-10-13T05:15:49;16.28;83.67
74224;SHT31;62585;49.706;18.216;2023-10-13T05:18:34;16.18;84.30
74224;SHT31;62585;49.706;18.216;2023-10-13T05:21:18;16.25;84.42
74224;SHT31;62585;49.706;18.216;2023-10-13T05:24:03;16.21;84.61
74224;SHT31;62585;49.706;18.216;2023-10-13T05:26:48;16.26;84.37
74224;SHT31;62585;49.706;18.216;2023-10-13T05:29:33;16.19;84.57
74224;SHT31;62585;49.706;18.216;2023-10-13T05:32:17;16.15;84.52
74224;SHT31;62585;49.706;18.216;2023-10-13T05:35:02;16.16;84.40
74224;SHT31;62585;49.706;18.216;2023-10-13T05:37:47;16.25;84.05
74224;SHT31;62585;49.706;18.216;2023-10-13T05:40:31;16.39;83.55
74224;SHT31;62585;49.706;18.216;2023-10-13T05:43:20;16.55;82.85
74224;SHT31;62585;49.706;18.216;2023-10-13T05:46:05;16.41;83.08
74224;SHT31;62585;49.706;18.216;2023-10-13T05:48:46;16.43;83.14
74224;SHT31;62585;49.706;18.216;2023-10-13T05:51:38;16.41;83.07
74224;SHT31;62585;49.706;18.216;2023-10-13T05:54:04;16.56;82.85
74224;SHT31;62585;49.706;18.216;2023-10-13T05:56:50;16.59;82.16
74224;SHT31;62585;49.706;18.216;2023-10-13T05:59:38;16.66;81.70
74224;SHT31;62585;49.706;18.216;2023-10-13T06:02:23;16.84;81.44
74224;SHT31;62585;49.706;18.216;2023-10-13T06:05:09;16.91;81.28
74224;SHT31;62585;49.706;18.216;2023-10-13T06:07:54;17.12;80.57
74224;SHT31;62585;49.706;18.216;2023-10-13T06:10:39;17.15;80.24
74224;SHT31;62585;49.706;18.216;2023-10-13T06:13:23;17.03;80.21
74224;SHT31;62585;49.706;18.216;2023-10-13T06:16:12;17.19;80.50
74224;SHT31;62585;49.706;18.216;2023-10-13T06:18:57;17.12;80.22
74224;SHT31;62585;49.706;18.216;2023-10-13T06:21:42;17.24;80.33
74224;SHT31;62585;49.706;18.216;2023-10-13T06:24:26;17.18;80.43
74224;SHT31;62585;49.706;18.216;2023-10-13T06:27:11;17.01;80.90
74224;SHT31;62585;49.706;18.216;2023-10-13T06:29:55;16.97;80.99
74224;SHT31;62585;49.706;18.216;2023-10-13T06:32:21;17.15;80.60
74224;SHT31;62585;49.706;18.216;2023-10-13T06:34:57;17.35;80.54
74224;SHT31;62585;49.706;18.216;2023-10-13T06:37:27;17.38;80.06
74224;SHT31;62585;49.706;18.216;2023-10-13T06:40:08;17.62;79.49
74224;SHT31;62585;49.706;18.216;2023-10-13T06:42:59;17.65;79.73
74224;SHT31;62585;49.706;18.216;2023-10-13T06:45:41;18.17;78.63
74224;SHT31;62585;49.706;18.216;2023-10-13T06:48:08;18.30;78.08
74224;SHT31;62585;49.706;18.216;2023-10-13T06:50:37;18.62;77.46
74224;SHT31;62585;49.706;18.216;2023-10-13T06:53:12;18.75;76.87
74224;SHT31;62585;49.706;18.216;2023-10-13T06:55:38;18.82;76.47
74224;SHT31;62585;49.706;18.216;2023-10-13T06:58:06;18.68;76.55
74224;SHT31;62585;49.706;18.216;2023-10-13T07:00:32;18.55;78.09
74224;SHT31;62585;49.706;18.216;2023-10-13T07:03:06;18.37;78.97
74224;SHT31;62585;49.706;18.216;2023-10-13T07:05:40;18.34;78.69
74224;SHT31;62585;49.706;18.216;2023-10-13T07:08:10;18.42;77.83
74224;SHT31;62585;49.706;18.216;2023-10-13T07:10:53;18.41;78.17
74224;SHT31;62585;49.706;18.216;2023-10-13T07:13:39;18.47;77.87
74224;SHT31;62585;49.706;18.216;2023-10-13T07:16:05;18.62;76.83
74224;SHT31;62585;49.706;18.216;2023-10-13T07:18:33;18.75;76.36
74224;SHT31;62585;49.706;18.216;2023-10-13T07:21:08;18.92;75.72
74224;SHT31;62585;49.706;18.216;2023-10-13T07:23:38;18.77;76.15
74224;SHT31;62585;49.706;18.216;2023-10-13T07:26:05;19.09;76.24
74224;SHT31;62585;49.706;18.216;2023-10-13T07:28:34;19.34;76.07
74224;SHT31;62585;49.706;18.216;2023-10-13T07:31:12;19.20;75.54
74224;SHT31;62585;49.706;18.216;2023-10-13T07:33:38;19.27;75.90
74224;SHT31;62585;49.706;18.216;2023-10-13T07:36:08;19.20;75.41
74224;SHT31;62585;49.706;18.216;2023-10-13T07:38:45;19.61;75.04
74224;SHT31;62585;49.706;18.216;2023-10-13T07:41:36;19.44;74.64
74224;SHT31;62585;49.706;18.216;2023-10-13T07:44:02;19.55;74.28
74224;SHT31;62585;49.706;18.216;2023-10-13T07:46:30;19.75;73.81
74224;SHT31;62585;49.706;18.216;2023-10-13T07:48:58;19.59;72.65
74224;SHT31;62585;49.706;18.216;2023-10-13T07:51:46;19.66;72.52
74224;SHT31;62585;49.706;18.216;2023-10-13T07:54:14;19.71;72.79
74224;SHT31;62585;49.706;18.216;2023-10-13T07:56:47;19.74;73.73
74224;SHT31;62585;49.706;18.216;2023-10-13T07:59:13;20.05;72.45
74224;SHT31;62585;49.706;18.216;2023-10-13T08:01:42;20.02;71.58
74224;SHT31;62585;49.706;18.216;2023-10-13T08:04:09;19.90;71.83
74224;SHT31;62585;49.706;18.216;2023-10-13T08:06:38;19.99;72.08
74224;SHT31;62585;49.706;18.216;2023-10-13T08:09:09;19.95;70.98
74224;SHT31;62585;49.706;18.216;2023-10-13T08:11:37;19.92;71.54
74224;SHT31;62585;49.706;18.216;2023-10-13T08:14:05;20.06;69.92
74224;SHT31;62585;49.706;18.216;2023-10-13T08:16:45;20.37;69.03
74224;SHT31;62585;49.706;18.216;2023-10-13T08:19:40;20.24;68.01
74224;SHT31;62585;49.706;18.216;2023-10-13T08:22:13;20.36;69.40
74224;SHT31;62585;49.706;18.216;2023-10-13T08:24:46;20.13;68.50
74224;SHT31;62585;49.706;18.216;2023-10-13T08:27:12;20.26;69.04
74224;SHT31;62585;49.706;18.216;2023-10-13T08:29:45;20.13;68.64
74224;SHT31;62585;49.706;18.216;2023-10-13T08:32:24;19.93;68.59
74224;SHT31;62585;49.706;18.216;2023-10-13T08:34:57;20.08;68.02
74224;SHT31;62585;49.706;18.216;2023-10-13T08:37:23;20.20;68.09
74224;SHT31;62585;49.706;18.216;2023-10-13T08:39:51;20.45;67.99
74224;SHT31;62585;49.706;18.216;2023-10-13T08:42:36;20.47;67.75
74224;SHT31;62585;49.706;18.216;2023-10-13T08:45:10;20.32;68.13
74224;SHT31;62585;49.706;18.216;2023-10-13T08:47:54;20.36;68.62
74224;SHT31;62585;49.706;18.216;2023-10-13T08:50:45;20.33;68.19
74224;SHT31;62585;49.706;18.216;2023-10-13T08:53:15;20.52;68.19
74224;SHT31;62585;49.706;18.216;2023-10-13T08:56:01;20.74;67.85
74224;SHT31;62585;49.706;18.216;2023-10-13T08:58:44;20.85;67.93
74224;SHT31;62585;49.706;18.216;2023-10-13T09:01:24;21.16;67.15
74224;SHT31;62585;49.706;18.216;2023-10-13T09:04:16;21.06;66.38
74224;SHT31;62585;49.706;18.216;2023-10-13T09:12:24;21.53;66.76
74224;SHT31;62585;49.706;18.216;2023-10-13T09:15:03;21.90;66.38
74224;SHT31;62585;49.706;18.216;2023-10-13T09:17:49;21.71;67.02
74224;SHT31;62585;49.706;18.216;2023-10-13T09:20:31;21.39;66.66
74224;SHT31;62585;49.706;18.216;2023-10-13T09:23:11;21.58;66.99
74224;SHT31;62585;49.706;18.216;2023-10-13T09:25:39;21.43;66.67
74224;SHT31;62585;49.706;18.216;2023-10-13T09:28:20;21.08;67.38
74224;SHT31;62585;49.706;18.216;2023-10-13T09:30:52;21.27;68.12
74224;SHT31;62585;49.706;18.216;2023-10-13T09:33:25;21.25;66.72
74224;SHT31;62585;49.706;18.216;2023-10-13T09:36:03;21.61;66.79
74224;SHT31;62585;49.706;18.216;2023-10-13T09:38:37;21.88;65.75
74224;SHT31;62585;49.706;18.216;2023-10-13T09:41:06;21.29;67.40
74224;SHT31;62585;49.706;18.216;2023-10-13T09:43:45;21.12;67.80
74224;SHT31;62585;49.706;18.216;2023-10-13T09:46:17;21.25;68.13
74224;SHT31;62585;49.706;18.216;2023-10-13T09:48:44;21.02;67.86
74224;SHT31;62585;49.706;18.216;2023-10-13T09:51:18;20.99;68.22
74224;SHT31;62585;49.706;18.216;2023-10-13T09:54:06;21.00;69.11
74224;SHT31;62585;49.706;18.216;2023-10-13T09:56:46;21.08;68.40
74224;SHT31;62585;49.706;18.216;2023-10-13T09:59:24;20.91;68.37
74224;SHT31;62585;49.706;18.216;2023-10-13T10:02:00;20.78;68.32
74224;SHT31;62585;49.706;18.216;2023-10-13T10:04:34;20.63;68.97
74224;SHT31;62585;49.706;18.216;2023-10-13T10:07:10;20.70;68.50
74224;SHT31;62585;49.706;18.216;2023-10-13T10:09:36;20.88;68.67
74224;SHT31;62585;49.706;18.216;2023-10-13T10:15:05;21.00;68.50
74224;SHT31;62585;49.706;18.216;2023-10-13T10:17:42;21.13;67.68
74224;SHT31;62585;49.706;18.216;2023-10-13T10:20:09;21.19;68.63
74224;SHT31;62585;49.706;18.216;2023-10-13T10:22:55;21.39;66.88
74224;SHT31;62585;49.706;18.216;2023-10-13T10:25:34;21.35;68.05
74224;SHT31;62585;49.706;18.216;2023-10-13T10:28:02;21.50;66.74
74224;SHT31;62585;49.706;18.216;2023-10-13T10:30:40;21.51;68.12
74224;SHT31;62585;49.706;18.216;2023-10-13T10:33:08;21.47;66.82
74224;SHT31;62585;49.706;18.216;2023-10-13T10:35:46;21.27;67.61
74224;SHT31;62585;49.706;18.216;2023-10-13T10:38:18;21.37;67.98
74224;SHT31;62585;49.706;18.216;2023-10-13T10:41:05;21.56;67.86
74224;SHT31;62585;49.706;18.216;2023-10-13T10:46:10;21.49;67.53
74224;SHT31;62585;49.706;18.216;2023-10-13T10:48:37;21.51;67.62
74224;SHT31;62585;49.706;18.216;2023-10-13T10:51:09;21.35;68.04
74224;SHT31;62585;49.706;18.216;2023-10-13T10:53:48;21.23;68.61
74224;SHT31;62585;49.706;18.216;2023-10-13T10:56:18;21.32;67.98
74224;SHT31;62585;49.706;18.216;2023-10-13T10:58:57;21.25;68.13
74224;SHT31;62585;49.706;18.216;2023-10-13T11:01:27;21.42;68.56
74224;SHT31;62585;49.706;18.216;2023-10-13T11:04:06;21.30;67.88
74224;SHT31;62585;49.706;18.216;2023-10-13T11:06:55;21.12;68.70
74224;SHT31;62585;49.706;18.216;2023-10-13T11:09:27;21.02;69.07
74224;SHT31;62585;49.706;18.216;2023-10-13T11:14:32;21.25;68.99
74224;SHT31;62585;49.706;18.216;2023-10-13T11:16:59;21.29;68.96
74224;SHT31;62585;49.706;18.216;2023-10-13T11:19:39;21.09;69.59
74224;SHT31;62585;49.706;18.216;2023-10-13T11:22:14;21.27;68.74
74224;SHT31;62585;49.706;18.216;2023-10-13T11:24:59;21.50;67.68
74224;SHT31;62585;49.706;18.216;2023-10-13T11:27:31;21.91;67.54
74224;SHT31;62585;49.706;18.216;2023-10-13T11:30:13;22.01;67.64
74224;SHT31;62585;49.706;18.216;2023-10-13T11:32:43;22.25;65.99
74224;SHT31;62585;49.706;18.216;2023-10-13T11:35:09;22.66;66.51
74224;SHT31;62585;49.706;18.216;2023-10-13T11:37:51;22.25;65.23
74224;SHT31;62585;49.706;18.216;2023-10-13T11:40:37;22.21;66.29
74224;SHT31;62585;49.706;18.216;2023-10-13T11:43:12;21.80;66.88
74224;SHT31;62585;49.706;18.216;2023-10-13T11:45:41;21.68;68.10
74224;SHT31;62585;49.706;18.216;2023-10-13T11:48:26;21.95;68.31
74224;SHT31;62585;49.706;18.216;2023-10-13T11:51:05;22.08;67.54
74224;SHT31;62585;49.706;18.216;2023-10-13T11:53:37;21.74;68.27
74224;SHT31;62585;49.706;18.216;2023-10-13T11:56:06;21.70;68.15
74224;SHT31;62585;49.706;18.216;2023-10-13T11:58:38;21.78;68.52
74224;SHT31;62585;49.706;18.216;2023-10-13T12:01:04;21.71;68.85
74224;SHT31;62585;49.706;18.216;2023-10-13T12:03:40;21.61;68.18
74224;SHT31;62585;49.706;18.216;2023-10-13T12:06:24;21.26;69.07
74224;SHT31;62585;49.706;18.216;2023-10-13T12:09:10;21.29;68.91
74224;SHT31;62585;49.706;18.216;2023-10-13T12:11:42;21.56;68.63
74224;SHT31;62585;49.706;18.216;2023-10-13T12:14:08;21.53;68.44
74224;SHT31;62585;49.706;18.216;2023-10-13T12:16:48;21.42;68.52
74224;SHT31;62585;49.706;18.216;2023-10-13T12:19:22;21.36;69.05
74224;SHT31;62585;49.706;18.216;2023-10-13T12:21:53;21.50;68.52
74224;SHT31;62585;49.706;18.216;2023-10-13T12:24:23;21.39;68.69
74224;SHT31;62585;49.706;18.216;2023-10-13T12:27:08;21.49;68.79
74224;SHT31;62585;49.706;18.216;2023-10-13T12:29:48;21.58;68.42
74224;SHT31;62585;49.706;18.216;2023-10-13T12:32:14;21.42;68.69
74224;SHT31;62585;49.706;18.216;2023-10-13T12:34:46;21.50;68.64
74224;SHT31;62585;49.706;18.216;2023-10-13T12:37:31;21.49;69.12
74224;SHT31;62585;49.706;18.216;2023-10-13T12:40:12;21.40;69.01
74224;SHT31;62585;49.706;18.216;2023-10-13T12:42:57;21.29;69.23
74224;SHT31;62585;49.706;18.216;2023-10-13T12:45:43;21.56;69.43
74224;SHT31;62585;49.706;18.216;2023-10-13T12:48:29;21.39;69.57
74224;SHT31;62585;49.706;18.216;2023-10-13T12:51:13;21.39;69.70
74224;SHT31;62585;49.706;18.216;2023-10-13T12:56:13;21.74;69.16
74224;SHT31;62585;49.706;18.216;2023-10-13T12:58:39;21.87;68.39
74224;SHT31;62585;49.706;18.216;2023-10-13T13:01:05;21.87;67.95
74224;SHT31;62585;49.706;18.216;2023-10-13T13:03:34;21.80;67.76
74224;SHT31;62585;49.706;18.216;2023-10-13T13:06:00;21.98;68.08
74224;SHT31;62585;49.706;18.216;2023-10-13T13:08:33;21.98;67.73
74224;SHT31;62585;49.706;18.216;2023-10-13T13:11:01;22.11;67.78
74224;SHT31;62585;49.706;18.216;2023-10-13T13:13:29;22.31;67.51
74224;SHT31;62585;49.706;18.216;2023-10-13T13:15:57;22.46;66.70
74224;SHT31;62585;49.706;18.216;2023-10-13T13:18:22;22.36;66.81
74224;SHT31;62585;49.706;18.216;2023-10-13T13:20:48;22.36;66.30
74224;SHT31;62585;49.706;18.216;2023-10-13T13:23:21;22.38;66.73
74224;SHT31;62585;49.706;18.216;2023-10-13T13:25:52;22.46;67.00
74224;SHT31;62585;49.706;18.216;2023-10-13T13:28:18;22.53;66.74
74224;SHT31;62585;49.706;18.216;2023-10-13T13:30:44;22.77;66.23
74224;SHT31;62585;49.706;18.216;2023-10-13T13:33:11;22.76;65.81
74224;SHT31;62585;49.706;18.216;2023-10-13T13:35:38;22.76;65.15
74224;SHT31;62585;49.706;18.216;2023-10-13T13:38:04;22.93;65.51
74224;SHT31;62585;49.706;18.216;2023-10-13T13:40:39;22.67;65.98
74224;SHT31;62585;49.706;18.216;2023-10-13T13:43:05;22.66;66.20
74224;SHT31;62585;49.706;18.216;2023-10-13T13:45:32;22.35;66.56
74224;SHT31;62585;49.706;18.216;2023-10-13T13:48:00;22.21;66.77
74224;SHT31;62585;49.706;18.216;2023-10-13T13:50:30;22.28;66.78
74224;SHT31;62585;49.706;18.216;2023-10-13T13:52:57;22.25;66.58
74224;SHT31;62585;49.706;18.216;2023-10-13T13:55:24;22.11;66.96
74224;SHT31;62585;49.706;18.216;2023-10-13T13:57:56;22.08;67.20
74224;SHT31;62585;49.706;18.216;2023-10-13T14:00:22;22.16;67.04
74224;SHT31;62585;49.706;18.216;2023-10-13T14:03:05;22.25;66.98
74224;SHT31;62585;49.706;18.216;2023-10-13T14:05:31;22.02;67.39
74224;SHT31;62585;49.706;18.216;2023-10-13T14:07:57;21.93;67.82
74224;SHT31;62585;49.706;18.216;2023-10-13T14:10:23;21.85;67.72
74224;SHT31;62585;49.706;18.216;2023-10-13T14:13:02;22.00;68.00
74224;SHT31;62585;49.706;18.216;2023-10-13T14:15:40;22.02;67.43
74224;SHT31;62585;49.706;18.216;2023-10-13T14:18:10;22.06;67.43
74224;SHT31;62585;49.706;18.216;2023-10-13T14:20:41;21.95;67.43
74224;SHT31;62585;49.706;18.216;2023-10-13T14:23:08;21.98;67.62
74224;SHT31;62585;49.706;18.216;2023-10-13T14:25:40;21.91;67.19
74224;SHT31;62585;49.706;18.216;2023-10-13T14:28:10;22.06;67.12
74224;SHT31;62585;49.706;18.216;2023-10-13T14:30:40;22.19;66.25
74224;SHT31;62585;49.706;18.216;2023-10-13T14:33:06;21.93;67.32
74224;SHT31;62585;49.706;18.216;2023-10-13T14:35:36;21.67;67.79
74224;SHT31;62585;49.706;18.216;2023-10-13T14:38:02;21.73;67.90
74224;SHT31;62585;49.706;18.216;2023-10-13T14:40:29;21.54;67.55
74224;SHT31;62585;49.706;18.216;2023-10-13T14:42:55;21.43;68.22
74224;SHT31;62585;49.706;18.216;2023-10-13T14:45:22;21.53;67.71
74224;SHT31;62585;49.706;18.216;2023-10-13T14:47:47;21.68;67.45
74224;SHT31;62585;49.706;18.216;2023-10-13T14:50:13;21.60;67.67
74224;SHT31;62585;49.706;18.216;2023-10-13T14:52:46;21.66;66.18
74224;SHT31;62585;49.706;18.216;2023-10-13T14:55:12;21.73;66.16
74224;SHT31;62585;49.706;18.216;2023-10-13T14:57:46;21.58;66.13
74224;SHT31;62585;49.706;18.216;2023-10-13T15:00:13;21.74;65.64
74224;SHT31;62585;49.706;18.216;2023-10-13T15:02:40;22.08;64.75
74224;SHT31;62585;49.706;18.216;2023-10-13T15:05:10;21.98;64.92
74224;SHT31;62585;49.706;18.216;2023-10-13T15:07:45;21.85;65.16
74224;SHT31;62585;49.706;18.216;2023-10-13T15:10:15;21.94;65.20
74224;SHT31;62585;49.706;18.216;2023-10-13T15:12:43;21.95;65.60
74224;SHT31;62585;49.706;18.216;2023-10-13T15:15:10;21.83;65.82
74224;SHT31;62585;49.706;18.216;2023-10-13T15:17:40;22.00;65.54
74224;SHT31;62585;49.706;18.216;2023-10-13T15:20:06;21.78;66.03
74224;SHT31;62585;49.706;18.216;2023-10-13T15:22:36;21.78;65.90
74224;SHT31;62585;49.706;18.216;2023-10-13T15:25:05;21.80;66.20
74224;SHT31;62585;49.706;18.216;2023-10-13T15:27:49;21.53;66.50
74224;SHT31;62585;49.706;18.216;2023-10-13T15:30:24;21.42;66.79
74224;SHT31;62585;49.706;18.216;2023-10-13T15:32:56;21.40;66.67
74224;SHT31;62585;49.706;18.216;2023-10-13T15:35:23;21.47;66.74
74224;SHT31;62585;49.706;18.216;2023-10-13T15:37:55;21.45;66.16
74224;SHT31;62585;49.706;18.216;2023-10-13T15:40:20;21.42;66.47
74224;SHT31;62585;49.706;18.216;2023-10-13T15:42:47;21.49;66.48
74224;SHT31;62585;49.706;18.216;2023-10-13T15:45:13;21.43;66.37
74224;SHT31;62585;49.706;18.216;2023-10-13T15:47:46;21.43;66.41
74224;SHT31;62585;49.706;18.216;2023-10-13T15:50:16;21.40;66.64
74224;SHT31;62585;49.706;18.216;2023-10-13T15:52:46;21.43;66.42
74224;SHT31;62585;49.706;18.216;2023-10-13T15:55:15;21.43;66.45
74224;SHT31;62585;49.706;18.216;2023-10-13T15:57:44;21.45;66.60
74224;SHT31;62585;49.706;18.216;2023-10-13T16:00:10;21.39;67.16
74224;SHT31;62585;49.706;18.216;2023-10-13T16:02:50;21.35;67.34
74224;SHT31;62585;49.706;18.216;2023-10-13T16:05:17;21.30;67.51
74224;SHT31;62585;49.706;18.216;2023-10-13T16:07:43;21.20;67.25
74224;SHT31;62585;49.706;18.216;2023-10-13T16:10:09;21.18;67.77
74224;SHT31;62585;49.706;18.216;2023-10-13T16:12:37;21.32;67.57